Time;durP1;ratioP1;P1;durP2;ratioP2;P2;SDS_P1;SDS_P2;PMS_P1;PMS_P2;Temp;Humidity;BMP_temperature;BMP_pressure;BME280_temperature;BME280_humidity;BME280_pressure;Samples;Min_cycle;Max_cycle;Signal;HPM_P1;HPM_P2
2022/11/09 00:00:00;;;;;;;3.17;2.30;;;13.90;99.90;;;;;;5094234;28;20169;-53
2022/11/09 00:02:26;;;;;;;5.70;3.72;;;13.90;99.90;;;;;;5093510;28;20176;-53
2022/11/09 00:04:52;;;;;;;4.35;2.92;;;13.80;99.90;;;;;;5093788;28;20637;-52
2022/11/09 00:07:18;;;;;;;4.85;1.85;;;13.80;99.90;;;;;;5093881;28;20200;-54
2022/11/09 00:09:43;;;;;;;3.30;1.77;;;13.80;99.90;;;;;;5093483;28;20166;-53
2022/11/09 00:12:09;;;;;;;2.97;2.22;;;13.80;99.90;;;;;;5093529;28;20549;-52
2022/11/09 00:14:35;;;;;;;1.80;1.50;;;13.90;99.90;;;;;;5093512;28;20168;-53
2022/11/09 00:17:01;;;;;;;1.85;1.48;;;13.90;99.90;;;;;;5093147;28;20165;-54
2022/11/09 00:19:26;;;;;;;5.43;2.65;;;13.90;99.90;;;;;;5093303;28;20168;-53
2022/11/09 00:21:52;;;;;;;2.90;1.95;;;13.80;99.90;;;;;;5093408;28;20691;-52
2022/11/09 00:24:17;;;;;;;19.65;10.35;;;13.80;99.90;;;;;;5093344;28;20237;-52
2022/11/09 00:26:43;;;;;;;3.80;1.77;;;13.80;99.90;;;;;;5093271;28;20157;-53
2022/11/09 00:29:09;;;;;;;1.77;1.63;;;13.80;99.90;;;;;;5093392;28;20197;-53
2022/11/09 00:31:35;;;;;;;1.63;1.52;;;13.80;99.90;;;;;;5093181;28;20192;-54
2022/11/09 00:34:01;;;;;;;5.70;2.20;;;13.80;99.90;;;;;;5093555;28;20200;-54
2022/11/09 00:36:28;;;;;;;3.92;2.13;;;13.80;99.90;;;;;;5093096;28;20161;-54
2022/11/09 00:38:56;;;;;;;10.27;3.42;;;13.80;99.90;;;;;;5093273;28;20173;-54
2022/11/09 00:41:22;;;;;;;3.65;1.77;;;13.80;99.90;;;;;;5093125;28;20170;-53
2022/11/09 00:43:48;;;;;;;4.32;2.20;;;13.80;99.90;;;;;;5092912;28;20680;-54
2022/11/09 00:46:14;;;;;;;7.65;3.70;;;13.80;99.90;;;;;;5093098;28;20165;-53
2022/11/09 00:48:39;;;;;;;1.52;1.40;;;13.70;99.90;;;;;;5092926;28;20636;-53
2022/11/09 00:51:05;;;;;;;4.30;2.00;;;13.70;99.90;;;;;;5092861;28;20165;-54
2022/11/09 00:53:31;;;;;;;7.45;2.10;;;13.70;99.90;;;;;;5074992;28;20188;-52
2022/11/09 00:56:02;;;;;;;5.72;2.20;;;13.70;99.90;;;;;;5092434;28;20169;-53
2022/11/09 00:58:31;;;;;;;5.22;1.42;;;13.70;99.90;;;;;;5092633;28;20176;-52
2022/11/09 01:00:58;;;;;;;1.70;1.50;;;13.70;99.90;;;;;;5092557;28;20311;-52
2022/11/09 01:03:24;;;;;;;2.90;1.83;;;13.70;99.90;;;;;;5092148;28;20223;-53
2022/11/09 01:05:51;;;;;;;2.20;1.40;;;13.70;99.90;;;;;;5092739;28;20341;-52
2022/11/09 01:08:17;;;;;;;2.30;1.60;;;13.70;99.90;;;;;;5073999;28;20180;-53
2022/11/09 01:10:45;;;;;;;2.38;1.50;;;13.70;99.90;;;;;;5092459;28;20158;-53
2022/11/09 01:13:14;;;;;;;2.30;1.42;;;13.80;99.90;;;;;;5092479;28;20204;-52
2022/11/09 01:15:51;;;;;;;4.60;1.60;;;13.70;99.90;;;;;;5092611;28;20173;-52
2022/11/09 01:18:18;;;;;;;3.97;1.92;;;13.80;99.90;;;;;;5092409;28;20256;-52
2022/11/09 01:20:46;;;;;;;5.00;2.83;;;13.90;99.90;;;;;;5091961;28;20207;-52
2022/11/09 01:23:14;;;;;;;4.53;2.30;;;14.00;99.90;;;;;;5092136;28;20209;-52
2022/11/09 01:25:40;;;;;;;18.35;3.65;;;14.10;99.90;;;;;;5091938;28;20674;-52
2022/11/09 01:28:07;;;;;;;4.50;2.80;;;14.10;99.90;;;;;;5073475;28;20663;-53
2022/11/09 01:30:37;;;;;;;5.28;2.33;;;14.00;99.90;;;;;;5091835;28;20169;-52
2022/11/09 01:33:04;;;;;;;10.05;2.30;;;14.20;99.90;;;;;;5092107;28;20640;-51
2022/11/09 01:35:32;;;;;;;5.32;2.03;;;14.20;99.90;;;;;;5092011;28;20176;-52
2022/11/09 01:37:58;;;;;;;4.90;1.88;;;13.90;99.90;;;;;;5092135;28;20256;-52
2022/11/09 01:40:23;;;;;;;5.75;2.05;;;14.00;99.90;;;;;;5091438;28;20272;-53
2022/11/09 01:42:49;;;;;;;5.72;1.98;;;14.00;99.90;;;;;;5091806;28;20238;-52
2022/11/09 01:45:17;;;;;;;5.47;1.80;;;13.90;99.90;;;;;;5091985;28;20172;-52
2022/11/09 01:47:49;;;;;;;3.47;1.65;;;13.80;99.90;;;;;;5091979;28;20238;-52
2022/11/09 01:50:27;;;;;;;4.38;2.22;;;13.80;99.90;;;;;;5091623;28;20177;-52
2022/11/09 01:52:53;;;;;;;5.82;1.77;;;13.70;99.90;;;;;;5091664;28;20244;-52
2022/11/09 01:55:22;;;;;;;5.25;1.80;;;13.70;99.90;;;;;;5091978;28;20747;-52
2022/11/09 01:57:48;;;;;;;2.38;1.45;;;13.70;99.90;;;;;;5091760;28;20303;-52
2022/11/09 02:00:15;;;;;;;4.05;1.75;;;13.70;99.90;;;;;;5073490;28;20256;-52
2022/11/09 02:02:46;;;;;;;2.83;1.73;;;13.70;99.90;;;;;;5091348;28;20204;-53
2022/11/09 02:05:16;;;;;;;6.85;1.98;;;13.70;99.90;;;;;;5091762;28;20161;-52
2022/11/09 02:07:42;;;;;;;7.97;2.08;;;13.70;99.90;;;;;;5091814;28;20234;-52
2022/11/09 02:10:19;;;;;;;5.47;1.65;;;13.70;99.90;;;;;;5091281;28;20180;-52
2022/11/09 02:12:45;;;;;;;7.38;2.92;;;13.60;99.90;;;;;;5091986;28;20517;-52
2022/11/09 02:15:12;;;;;;;8.00;2.75;;;13.70;99.90;;;;;;5091710;28;20171;-53
2022/11/09 02:17:39;;;;;;;10.35;3.33;;;13.90;99.90;;;;;;5091674;28;20175;-53
2022/11/09 02:20:15;;;;;;;14.55;3.38;;;14.00;99.90;;;;;;5091541;28;20181;-53
2022/11/09 02:22:41;;;;;;;8.50;3.13;;;14.10;99.90;;;;;;5091594;28;20199;-52
2022/11/09 02:25:08;;;;;;;5.30;2.47;;;14.10;99.90;;;;;;5091475;28;20173;-52
2022/11/09 02:27:36;;;;;;;6.28;2.42;;;14.10;99.90;;;;;;5091218;28;20173;-53
2022/11/09 02:30:02;;;;;;;6.82;2.53;;;14.20;99.90;;;;;;5091854;28;20633;-53
2022/11/09 02:32:29;;;;;;;6.38;2.13;;;14.30;99.90;;;;;;5091363;28;20173;-53
2022/11/09 02:34:55;;;;;;;9.93;3.35;;;14.20;99.90;;;;;;5091324;28;20179;-52
2022/11/09 02:37:30;;;;;;;10.55;3.00;;;14.20;99.90;;;;;;5091263;28;20253;-53
2022/11/09 02:39:58;;;;;;;9.18;3.22;;;14.20;99.90;;;;;;5091422;28;20165;-53
2022/11/09 02:42:24;;;;;;;10.45;3.15;;;14.20;99.90;;;;;;5094909;28;20168;-53
2022/11/09 02:44:55;;;;;;;8.30;2.53;;;14.20;99.90;;;;;;5095241;28;20537;-53
2022/11/09 02:47:20;;;;;;;7.47;2.47;;;14.20;99.90;;;;;;5095172;28;20204;-53
2022/11/09 02:49:46;;;;;;;10.18;2.40;;;14.20;99.90;;;;;;5077030;28;20201;-53
2022/11/09 02:52:12;;;;;;;7.53;2.38;;;14.10;99.90;;;;;;5095123;28;20169;-53
2022/11/09 02:54:37;;;;;;;7.72;2.28;;;14.10;99.90;;;;;;5095173;28;20168;-53
2022/11/09 02:57:03;;;;;;;6.35;2.22;;;14.10;99.90;;;;;;5094943;28;20169;-52
2022/11/09 02:59:29;;;;;;;6.18;2.20;;;14.00;99.90;;;;;;5095270;28;20193;-53
2022/11/09 03:01:54;;;;;;;4.97;2.03;;;13.90;99.90;;;;;;5094957;28;20169;-53
2022/11/09 03:04:20;;;;;;;5.32;2.17;;;13.90;99.90;;;;;;5094670;28;20229;-53
2022/11/09 03:06:45;;;;;;;5.47;1.80;;;13.80;99.90;;;;;;5094867;28;20165;-54
2022/11/09 03:09:11;;;;;;;5.63;1.60;;;13.80;99.90;;;;;;5094927;28;20173;-54
2022/11/09 03:11:39;;;;;;;3.00;1.50;;;13.70;99.90;;;;;;5094825;28;20162;-53
2022/11/09 03:14:04;;;;;;;5.13;2.28;;;13.70;99.90;;;;;;5094816;28;20158;-53
2022/11/09 03:16:30;;;;;;;7.65;2.20;;;13.80;99.90;;;;;;5095048;28;20169;-53
2022/11/09 03:18:56;;;;;;;6.40;2.53;;;13.80;99.90;;;;;;5094690;28;20180;-53
2022/11/09 03:21:22;;;;;;;8.52;2.65;;;13.90;99.90;;;;;;5094268;28;20268;-52
2022/11/09 03:23:49;;;;;;;6.38;2.33;;;14.10;99.90;;;;;;5094436;28;20727;-53
2022/11/09 03:26:14;;;;;;;8.07;2.08;;;14.20;99.90;;;;;;5094538;28;20170;-53
2022/11/09 03:28:40;;;;;;;6.32;2.35;;;14.10;99.90;;;;;;5094565;28;20260;-53
2022/11/09 03:31:05;;;;;;;7.57;2.40;;;14.10;99.90;;;;;;5094668;28;20176;-52
2022/11/09 03:33:31;;;;;;;4.07;1.90;;;14.10;99.90;;;;;;5094754;28;20196;-52
2022/11/09 03:35:57;;;;;;;7.68;1.67;;;15.80;99.90;;;;;;5094664;28;20162;-52
2022/11/09 03:38:22;;;;;;;13.45;1.83;;;14.00;99.90;;;;;;5094253;28;20239;-52
2022/11/09 03:40:48;;;;;;;8.80;2.75;;;13.90;99.90;;;;;;5094241;28;20161;-52
2022/11/09 03:43:13;;;;;;;5.50;1.85;;;13.90;99.90;;;;;;5094102;28;20687;-52
2022/11/09 03:45:39;;;;;;;4.65;1.80;;;13.80;99.90;;;;;;5094113;28;20169;-52
2022/11/09 03:48:05;;;;;;;5.53;1.60;;;13.80;99.90;;;;;;5094402;28;20180;-52
2022/11/09 03:50:32;;;;;;;5.55;1.65;;;13.80;99.90;;;;;;5076259;28;20201;-52
2022/11/09 03:52:59;;;;;;;4.63;1.35;;;15.40;99.90;;;;;;5094224;28;20161;-52
2022/11/09 03:55:25;;;;;;;4.47;1.75;;;13.70;99.90;;;;;;5093920;28;20176;-52
2022/11/09 03:57:51;;;;;;;3.05;1.40;;;13.70;99.90;;;;;;5093505;28;20238;-52
2022/11/09 04:00:19;;;;;;;8.65;1.83;;;13.60;99.90;;;;;;5093802;28;20637;-52
2022/11/09 04:02:44;;;;;;;4.47;2.20;;;13.70;99.90;;;;;;5093256;28;20200;-52
2022/11/09 04:05:10;;;;;;;8.57;2.75;;;13.60;99.90;;;;;;5093785;28;20177;-51
2022/11/09 04:07:37;;;;;;;5.90;1.80;;;13.70;99.90;;;;;;5093676;28;20204;-52
2022/11/09 04:10:03;;;;;;;7.22;1.83;;;13.70;99.90;;;;;;5093736;28;20260;-51
2022/11/09 04:12:29;;;;;;;4.20;1.85;;;13.90;99.90;;;;;;5093847;28;20205;-52
2022/11/09 04:14:54;;;;;;;5.55;1.90;;;13.90;99.90;;;;;;5093533;28;20200;-52
2022/11/09 04:17:20;;;;;;;8.68;2.15;;;13.90;99.90;;;;;;5092934;28;20169;-52
2022/11/09 04:19:46;;;;;;;6.25;2.28;;;13.90;99.90;;;;;;5093548;28;20176;-52
2022/11/09 04:22:11;;;;;;;4.65;2.10;;;14.00;99.90;;;;;;5092964;28;20525;-52
2022/11/09 04:24:37;;;;;;;6.97;1.80;;;14.00;99.90;;;;;;5093291;28;20212;-52
2022/11/09 04:27:03;;;;;;;8.40;2.63;;;13.90;99.90;;;;;;5093289;28;20629;-52
2022/11/09 04:29:29;;;;;;;9.23;2.45;;;14.00;99.90;;;;;;5093508;28;20260;-53
2022/11/09 04:31:54;;;;;;;4.80;1.75;;;14.10;99.90;;;;;;5092824;28;20657;-52
2022/11/09 04:34:20;;;;;;;5.45;2.22;;;14.00;99.90;;;;;;5092694;28;20169;-53
2022/11/09 04:36:45;;;;;;;4.43;2.50;;;14.10;99.90;;;;;;5093196;28;20170;-53
2022/11/09 04:39:11;;;;;;;8.45;3.03;;;14.10;99.90;;;;;;5093131;28;20166;-52
2022/11/09 04:41:36;;;;;;;11.00;3.25;;;14.20;99.90;;;;;;5093073;28;20230;-53
2022/11/09 04:44:03;;;;;;;11.15;3.28;;;14.10;99.90;;;;;;5096047;28;20200;-53
2022/11/09 04:46:28;;;;;;;8.18;3.13;;;14.10;99.90;;;;;;5113203;28;20160;-52
2022/11/09 04:48:54;;;;;;;4.47;2.08;;;14.10;99.90;;;;;;5113003;28;20640;-52
2022/11/09 04:51:19;;;;;;;12.75;2.63;;;14.10;99.90;;;;;;5113117;28;20173;-52
2022/11/09 04:53:45;;;;;;;5.35;1.63;;;14.10;99.90;;;;;;5113251;28;20173;-53
2022/11/09 04:56:11;;;;;;;4.30;1.55;;;14.10;99.90;;;;;;5113247;28;20161;-54
2022/11/09 04:58:37;;;;;;;6.90;1.58;;;14.20;99.90;;;;;;5112990;28;20168;-53
2022/11/09 05:01:04;;;;;;;5.30;1.55;;;14.20;99.90;;;;;;5113107;28;20168;-53
2022/11/09 05:03:30;;;;;;;5.28;1.80;;;14.20;99.90;;;;;;5112379;28;20213;-53
2022/11/09 05:05:56;;;;;;;4.05;1.90;;;14.20;99.90;;;;;;5112855;28;20161;-53
2022/11/09 05:08:22;;;;;;;5.38;1.27;;;14.20;99.90;;;;;;5112816;28;20177;-53
2022/11/09 05:10:47;;;;;;;4.00;1.70;;;14.20;99.90;;;;;;5112904;28;20210;-53
2022/11/09 05:13:13;;;;;;;4.85;1.48;;;14.20;99.90;;;;;;5112801;28;20161;-52
2022/11/09 05:15:39;;;;;;;6.18;1.98;;;14.20;99.90;;;;;;5112411;28;20226;-53
2022/11/09 05:18:06;;;;;;;4.65;1.40;;;14.10;99.90;;;;;;5112527;28;20175;-54
2022/11/09 05:20:33;;;;;;;5.78;1.52;;;14.20;99.90;;;;;;5112678;28;20168;-53
2022/11/09 05:25:44;;;;;;;4.95;1.80;;;14.10;99.90;;;;;;5112533;28;20280;-53
2022/11/09 05:28:10;;;;;;;5.85;1.40;;;14.10;99.90;;;;;;5112651;28;20165;-53
2022/11/09 05:30:36;;;;;;;6.22;1.67;;;14.10;99.90;;;;;;5112743;28;20226;-53
2022/11/09 05:33:02;;;;;;;4.82;1.20;;;14.20;99.90;;;;;;5112529;28;20165;-53
2022/11/09 05:35:27;;;;;;;5.22;1.13;;;14.10;99.90;;;;;;5112864;28;20169;-52
2022/11/09 05:37:53;;;;;;;6.22;1.55;;;14.10;99.90;;;;;;5112206;28;20202;-54
2022/11/09 05:40:19;;;;;;;6.90;1.33;;;14.00;99.90;;;;;;5112601;28;20514;-52
2022/11/09 05:42:45;;;;;;;6.53;1.45;;;14.00;99.90;;;;;;5112325;28;20201;-51
2022/11/09 05:45:16;;;;;;;3.50;1.30;;;13.80;99.90;;;;;;5112621;28;20586;-51
2022/11/09 05:47:43;;;;;;;9.50;1.75;;;13.60;99.90;;;;;;5111902;28;20632;-51
2022/11/09 05:50:12;;;;;;;2.90;1.35;;;13.50;99.90;;;;;;5112012;28;20176;-52
2022/11/09 05:52:38;;;;;;;3.10;1.58;;;13.30;99.90;;;;;;5112129;28;20172;-52
2022/11/09 05:55:04;;;;;;;8.63;1.63;;;13.20;99.90;;;;;;5112102;28;20172;-52
2022/11/09 05:57:30;;;;;;;3.75;1.30;;;13.10;99.90;;;;;;5112326;28;20222;-52
2022/11/09 05:59:55;;;;;;;4.40;1.42;;;13.10;99.90;;;;;;5112062;28;20176;-52
2022/11/09 06:02:22;;;;;;;6.50;1.50;;;13.10;99.90;;;;;;5111982;28;20160;-52
2022/11/09 06:04:47;;;;;;;4.53;1.25;;;13.10;99.90;;;;;;5111800;28;20227;-52
2022/11/09 06:07:13;;;;;;;3.15;1.50;;;13.10;99.90;;;;;;5112058;28;20169;-51
2022/11/09 06:09:38;;;;;;;5.90;1.58;;;13.10;99.90;;;;;;5112007;28;20203;-52
2022/11/09 06:12:04;;;;;;;5.28;1.70;;;13.10;99.90;;;;;;5111960;28;20187;-52
2022/11/09 06:14:30;;;;;;;5.82;1.75;;;13.10;99.90;;;;;;5112879;28;20583;-52
2022/11/09 06:16:55;;;;;;;4.68;1.60;;;13.10;99.90;;;;;;5116183;28;20168;-51
2022/11/09 06:19:21;;;;;;;3.38;1.38;;;13.10;99.90;;;;;;5116086;28;20168;-52
2022/11/09 06:21:46;;;;;;;4.50;1.38;;;13.00;99.90;;;;;;5115945;28;20173;-52
2022/11/09 06:24:12;;;;;;;6.03;1.80;;;13.00;99.90;;;;;;5115874;28;20283;-52
2022/11/09 06:26:37;;;;;;;3.33;1.55;;;13.10;99.90;;;;;;5116091;28;20549;-52
2022/11/09 06:29:03;;;;;;;3.03;1.50;;;13.00;99.90;;;;;;5116021;28;20164;-52
2022/11/09 06:31:29;;;;;;;5.72;1.38;;;13.00;99.90;;;;;;5116280;28;20164;-52
2022/11/09 06:33:55;;;;;;;4.85;1.45;;;13.00;99.90;;;;;;5116037;28;20177;-52
2022/11/09 06:36:20;;;;;;;3.10;1.60;;;12.90;99.90;;;;;;5097617;28;21123;-52
2022/11/09 06:38:50;;;;;;;2.75;1.27;;;12.90;99.90;;;;;;5115721;28;20169;-52
2022/11/09 06:41:16;;;;;;;6.50;1.50;;;12.90;99.90;;;;;;5097669;28;20165;-52
2022/11/09 06:43:42;;;;;;;4.93;1.33;;;13.00;99.90;;;;;;5115577;28;20211;-52
2022/11/09 06:46:09;;;;;;;3.88;1.30;;;12.90;99.90;;;;;;5115520;28;20247;-53
2022/11/09 06:48:36;;;;;;;3.40;1.33;;;12.90;99.90;;;;;;5115495;28;20628;-52
2022/11/09 06:51:03;;;;;;;4.78;1.55;;;12.90;99.90;;;;;;5115469;28;20520;-52
2022/11/09 06:53:30;;;;;;;6.20;1.55;;;12.90;99.90;;;;;;5115867;28;20164;-52
2022/11/09 06:56:01;;;;;;;5.05;1.35;;;12.90;99.90;;;;;;5115823;28;20168;-52
2022/11/09 06:58:27;;;;;;;5.72;1.40;;;12.90;99.90;;;;;;5115896;28;20619;-52
2022/11/09 07:00:53;;;;;;;3.78;1.70;;;12.90;99.90;;;;;;5115682;28;20210;-52
2022/11/09 07:03:20;;;;;;;5.00;1.60;;;12.90;99.90;;;;;;5115043;28;20225;-52
2022/11/09 07:05:46;;;;;;;4.07;1.38;;;12.90;99.90;;;;;;5115253;28;20278;-52
2022/11/09 07:08:13;;;;;;;4.50;1.40;;;12.80;99.90;;;;;;5115244;28;20580;-51
2022/11/09 07:10:39;;;;;;;7.38;1.90;;;12.80;99.90;;;;;;5115321;28;20172;-52
2022/11/09 07:13:05;;;;;;;6.60;2.05;;;12.90;99.90;;;;;;5115050;28;20169;-51
2022/11/09 07:15:32;;;;;;;5.93;1.60;;;12.90;99.90;;;;;;5096709;28;20175;-52
2022/11/09 07:18:01;;;;;;;4.80;1.10;;;12.80;99.90;;;;;;5115333;28;20221;-51
2022/11/09 07:20:27;;;;;;;2.90;1.27;;;12.80;99.90;;;;;;5115293;28;20226;-52
2022/11/09 07:22:53;;;;;;;2.70;1.30;;;12.70;99.90;;;;;;5114783;28;20211;-54
2022/11/09 07:25:19;;;;;;;3.80;1.48;;;12.80;99.90;;;;;;5114466;28;20161;-51
2022/11/09 07:27:45;;;;;;;1.73;1.00;;;12.80;99.90;;;;;;5114133;28;20169;-50
2022/11/09 07:30:11;;;;;;;2.53;1.25;;;12.80;99.90;;;;;;5114409;28;20191;-51
2022/11/09 07:32:38;;;;;;;4.65;1.65;;;12.80;99.90;;;;;;5114609;28;20631;-51
2022/11/09 07:35:04;;;;;;;3.95;1.20;;;12.80;99.90;;;;;;5114143;28;20169;-51
2022/11/09 07:37:31;;;;;;;3.20;1.60;;;12.80;99.90;;;;;;5114958;28;20640;-49
2022/11/09 07:39:57;;;;;;;6.22;2.45;;;12.90;99.90;;;;;;5114523;28;20231;-48
2022/11/09 07:42:23;;;;;;;5.07;1.55;;;12.90;99.90;;;;;;5096053;28;20161;-51
2022/11/09 07:44:49;;;;;;;3.15;1.35;;;12.90;99.90;;;;;;5113969;28;20200;-52
2022/11/09 07:47:16;;;;;;;5.72;1.80;;;13.00;99.90;;;;;;5095945;28;20214;-54
2022/11/09 07:49:42;;;;;;;8.07;2.40;;;13.00;99.90;;;;;;5114108;28;20165;-52
2022/11/09 07:52:07;;;;;;;7.85;2.40;;;13.10;99.90;;;;;;5114155;28;20168;-52
2022/11/09 07:54:33;;;;;;;5.03;1.55;;;13.10;99.90;;;;;;5114151;28;20187;-51
2022/11/09 07:56:58;;;;;;;5.63;1.50;;;13.10;99.90;;;;;;5114552;28;20684;-51
2022/11/09 07:59:24;;;;;;;4.30;1.23;;;13.20;99.90;;;;;;5113803;28;20187;-51
2022/11/09 08:01:50;;;;;;;3.95;1.60;;;13.20;99.90;;;;;;5113920;28;20531;-52
2022/11/09 08:04:15;;;;;;;4.88;1.75;;;13.30;99.90;;;;;;5113472;28;20228;-51
2022/11/09 08:06:41;;;;;;;4.53;1.70;;;13.30;99.90;;;;;;5113800;28;20168;-51
2022/11/09 08:09:06;;;;;;;6.20;1.20;;;13.40;99.90;;;;;;5113775;28;20633;-51
2022/11/09 08:11:32;;;;;;;3.28;1.40;;;13.40;99.90;;;;;;5095294;28;20233;-51
2022/11/09 08:13:57;;;;;;;6.97;2.00;;;13.40;99.90;;;;;;5113848;28;20591;-51
2022/11/09 08:16:23;;;;;;;2.90;1.52;;;13.40;99.90;;;;;;5113475;28;20640;-51
2022/11/09 08:18:50;;;;;;;2.17;1.40;;;13.40;99.90;;;;;;5113623;28;20525;-51
2022/11/09 08:21:16;;;;;;;3.58;2.08;;;13.50;99.90;;;;;;5113794;28;20658;-51
2022/11/09 08:23:41;;;;;;;2.50;1.10;;;13.50;99.90;;;;;;5113587;28;20299;-51
2022/11/09 08:26:07;;;;;;;2.60;1.48;;;13.70;99.90;;;;;;5112988;28;20175;-53
2022/11/09 08:28:33;;;;;;;4.47;1.80;;;13.80;99.90;;;;;;5111603;28;20160;-52
2022/11/09 08:31:01;;;;;;;6.15;1.88;;;13.80;99.90;;;;;;5112463;28;20197;-51
2022/11/09 08:33:28;;;;;;;4.43;1.73;;;13.90;99.90;;;;;;5111945;28;20639;-51
2022/11/09 08:35:54;;;;;;;3.70;1.55;;;14.00;99.90;;;;;;5111932;28;20168;-52
2022/11/09 08:38:20;;;;;;;2.30;1.30;;;13.90;99.90;;;;;;5111794;28;20621;-52
2022/11/09 08:40:46;;;;;;;4.55;1.55;;;14.00;99.90;;;;;;5111535;28;20173;-53
2022/11/09 08:43:12;;;;;;;5.65;1.75;;;14.10;99.90;;;;;;5111818;28;20315;-55
2022/11/09 08:45:39;;;;;;;5.35;1.67;;;14.20;99.90;;;;;;5112889;28;20217;-53
2022/11/09 08:48:06;;;;;;;2.28;1.10;;;14.20;99.90;;;;;;5113043;28;20153;-51
2022/11/09 08:50:33;;;;;;;2.83;1.10;;;14.20;99.90;;;;;;5113051;28;20165;-51
2022/11/09 08:53:00;;;;;;;5.63;2.03;;;14.30;99.90;;;;;;5113400;28;20229;-51
2022/11/09 08:55:26;;;;;;;3.88;1.45;;;14.30;99.90;;;;;;5112920;28;20651;-51
2022/11/09 08:57:56;;;;;;;4.10;1.45;;;14.30;99.90;;;;;;5112342;28;20172;-52
2022/11/09 09:00:32;;;;;;;7.30;1.50;;;14.30;99.90;;;;;;5088910;28;20288;-50
2022/11/09 09:03:01;;;;;;;4.68;1.42;;;14.50;99.90;;;;;;5089142;28;20263;-50
2022/11/09 09:05:27;;;;;;;5.72;1.52;;;14.50;99.90;;;;;;5089351;28;20163;-52
2022/11/09 09:07:52;;;;;;;7.80;1.50;;;14.50;99.90;;;;;;5089182;28;20257;-51
2022/11/09 09:10:18;;;;;;;4.97;1.83;;;14.60;99.90;;;;;;5088975;28;20189;-50
2022/11/09 09:12:43;;;;;;;7.40;1.58;;;14.70;99.90;;;;;;5088376;28;20204;-52
2022/11/09 09:15:09;;;;;;;6.97;1.50;;;14.70;99.90;;;;;;5088730;28;20177;-50
2022/11/09 09:17:34;;;;;;;9.48;1.83;;;14.70;99.90;;;;;;5088478;28;20524;-50
2022/11/09 09:20:00;;;;;;;3.78;1.67;;;14.80;99.90;;;;;;5088499;28;20205;-50
2022/11/09 09:22:26;;;;;;;2.35;1.15;;;14.80;99.90;;;;;;5089104;28;20169;-50
2022/11/09 09:24:52;;;;;;;1.80;1.02;;;14.90;99.90;;;;;;5088683;28;20645;-50
2022/11/09 09:27:18;;;;;;;2.95;1.20;;;14.90;99.90;;;;;;5088640;28;20177;-50
2022/11/09 09:29:43;;;;;;;5.25;1.58;;;14.90;99.90;;;;;;5088183;28;20288;-50
2022/11/09 09:32:09;;;;;;;4.07;1.23;;;15.00;99.90;;;;;;5088438;28;20181;-50
2022/11/09 09:34:34;;;;;;;3.50;1.40;;;15.00;99.90;;;;;;5088193;28;20165;-50
2022/11/09 09:37:00;;;;;;;2.78;1.33;;;14.90;99.90;;;;;;5088249;28;20174;-50
2022/11/09 09:39:26;;;;;;;2.80;1.38;;;14.90;99.90;;;;;;5088079;28;20205;-50
2022/11/09 09:41:51;;;;;;;5.35;1.23;;;14.90;99.90;;;;;;5087814;28;20169;-50
2022/11/09 09:44:50;;;;;;;3.83;1.30;;;14.70;99.90;;;;;;5087789;28;20532;-50
2022/11/09 09:47:49;;;;;;;2.67;1.20;;;14.60;99.90;;;;;;5087347;28;20158;-54
2022/11/09 09:50:26;;;;;;;5.03;1.65;;;14.50;99.90;;;;;;5087863;28;20169;-51
2022/11/09 09:53:02;;;;;;;4.30;1.33;;;14.50;99.90;;;;;;5087687;28;20204;-53
2022/11/09 09:55:38;;;;;;;3.15;1.33;;;14.50;99.90;;;;;;5088253;28;20169;-52
2022/11/09 09:58:11;;;;;;;4.65;1.42;;;14.60;99.90;;;;;;5087284;28;20197;-52
2022/11/09 10:00:38;;;;;;;4.85;1.52;;;14.50;99.90;;;;;;5087166;28;20178;-50
2022/11/09 10:03:05;;;;;;;2.35;0.88;;;14.40;99.90;;;;;;5087264;28;20200;-53
2022/11/09 10:05:51;;;;;;;5.90;1.45;;;14.50;99.90;;;;;;5087165;28;20230;-53
2022/11/09 10:08:51;;;;;;;3.60;1.23;;;14.40;99.90;;;;;;5087898;28;20173;-53
2022/11/09 10:11:34;;;;;;;1.63;1.05;;;14.30;99.90;;;;;;5077357;28;20166;-53
2022/11/09 10:14:33;;;;;;;2.33;1.20;;;14.30;99.90;;;;;;5074600;28;20212;-53
2022/11/09 10:17:27;;;;;;;5.07;1.60;;;14.30;99.90;;;;;;5037058;28;20186;-53
2022/11/09 10:20:01;;;;;;;3.22;1.20;;;14.40;99.90;;;;;;5074039;28;20206;-53
2022/11/09 10:23:04;;;;;;;6.53;1.40;;;14.40;99.90;;;;;;5074462;28;20161;-52
2022/11/09 10:25:35;;;;;;;3.72;0.93;;;14.40;99.90;;;;;;5073939;28;20162;-54
2022/11/09 10:28:23;;;;;;;4.55;1.20;;;14.40;99.90;;;;;;5073872;28;20637;-53
2022/11/09 10:30:49;;;;;;;4.50;1.40;;;14.40;99.90;;;;;;5073521;28;20208;-52
2022/11/09 10:33:20;;;;;;;4.97;1.27;;;14.40;99.90;;;;;;5073649;28;20162;-53
2022/11/09 10:35:55;;;;;;;3.83;1.20;;;14.40;99.90;;;;;;5073566;28;20174;-54
2022/11/09 10:38:26;;;;;;;2.58;1.40;;;14.40;99.90;;;;;;5072418;28;20166;-52
2022/11/09 10:40:57;;;;;;;2.90;1.30;;;14.50;99.90;;;;;;5073646;28;20177;-53
2022/11/09 10:43:23;;;;;;;6.05;2.08;;;14.50;99.90;;;;;;5073758;28;20266;-51
2022/11/09 10:45:59;;;;;;;5.78;1.45;;;14.60;99.90;;;;;;5073644;28;20177;-51
2022/11/09 10:48:36;;;;;;;3.20;1.50;;;14.70;99.90;;;;;;5073811;28;20174;-51
2022/11/09 10:51:03;;;;;;;3.28;1.45;;;14.90;99.90;;;;;;5073333;28;20166;-51
2022/11/09 10:53:31;;;;;;;5.82;1.95;;;15.10;99.90;;;;;;5073615;28;20311;-51
2022/11/09 10:56:15;;;;;;;5.43;1.50;;;15.00;99.90;;;;;;5073671;28;20245;-50
2022/11/09 10:58:47;;;;;;;4.53;1.08;;;15.00;99.90;;;;;;5078227;28;20289;-50
2022/11/09 11:01:16;;;;;;;3.70;1.40;;;15.00;99.90;;;;;;5093730;28;20663;-51
2022/11/09 11:03:44;;;;;;;2.80;1.17;;;15.00;99.90;;;;;;5093513;28;20257;-51
2022/11/09 11:06:25;;;;;;;4.60;1.20;;;15.00;99.90;;;;;;5093706;28;20299;-51
2022/11/09 11:09:11;;;;;;;2.15;1.10;;;15.10;99.90;;;;;;5075511;28;20192;-50
2022/11/09 11:11:38;;;;;;;7.38;1.92;;;15.20;99.90;;;;;;5092656;28;20639;-51
2022/11/09 11:14:18;;;;;;;1.58;1.05;;;15.20;99.90;;;;;;5092999;28;20291;-51
2022/11/09 11:16:45;;;;;;;2.40;0.95;;;15.10;99.90;;;;;;5093334;28;20158;-51
2022/11/09 11:19:32;;;;;;;3.50;1.35;;;15.10;99.90;;;;;;5093189;28;20213;-51
2022/11/09 11:22:10;;;;;;;2.85;1.42;;;15.10;99.90;;;;;;5092460;28;20157;-51
2022/11/09 11:24:54;;;;;;;4.88;1.40;;;15.00;99.90;;;;;;5093169;28;20169;-50
2022/11/09 11:27:52;;;;;;;5.18;1.70;;;14.90;99.90;;;;;;5093098;28;20176;-51
2022/11/09 11:30:33;;;;;;;4.28;1.23;;;15.00;99.90;;;;;;5093138;28;20229;-52
2022/11/09 11:32:59;;;;;;;5.07;1.30;;;15.10;99.90;;;;;;5093034;28;20169;-51
2022/11/09 11:35:34;;;;;;;7.63;1.42;;;15.20;99.90;;;;;;5093380;28;20177;-51
2022/11/09 11:38:20;;;;;;;5.80;1.70;;;15.20;99.90;;;;;;5092716;28;20160;-51
2022/11/09 11:41:04;;;;;;;4.03;1.63;;;15.20;99.90;;;;;;5092592;28;20181;-51
2022/11/09 11:43:51;;;;;;;5.03;2.05;;;15.30;99.90;;;;;;5092714;28;20165;-51
2022/11/09 11:46:24;;;;;;;7.07;1.30;;;15.30;99.90;;;;;;5092714;28;20177;-51
2022/11/09 11:49:06;;;;;;;4.00;1.40;;;15.40;99.90;;;;;;5092457;28;20200;-52
2022/11/09 11:51:48;;;;;;;7.00;2.05;;;15.40;99.90;;;;;;5092554;28;20165;-51
2022/11/09 11:54:16;;;;;;;4.53;1.52;;;15.40;99.90;;;;;;5092576;28;20174;-51
2022/11/09 11:56:46;;;;;;;2.85;1.23;;;15.40;99.90;;;;;;5092598;28;20161;-50
2022/11/09 11:59:17;;;;;;;4.03;1.42;;;15.40;99.90;;;;;;5092273;28;20703;-51
2022/11/09 12:02:21;;;;;;;3.15;1.30;;;15.40;99.90;;;;;;5092654;28;20177;-51
2022/11/09 12:05:14;;;;;;;7.28;1.48;;;15.40;99.90;;;;;;5087587;28;20177;-51
2022/11/09 12:07:57;;;;;;;2.78;1.30;;;15.40;99.90;;;;;;5092451;28;20238;-51
2022/11/09 12:10:43;;;;;;;8.55;1.83;;;15.40;99.90;;;;;;5091347;28;20169;-50
2022/11/09 12:13:41;;;;;;;3.70;1.40;;;15.50;99.90;;;;;;5090620;28;20185;-49
2022/11/09 12:16:29;;;;;;;6.13;1.48;;;15.40;99.90;;;;;;5092141;28;20617;-50
2022/11/09 12:19:32;;;;;;;7.55;1.83;;;15.40;99.90;;;;;;5092339;28;20613;-50
2022/11/09 12:22:20;;;;;;;2.75;1.38;;;15.40;99.90;;;;;;5091725;28;20169;-52
2022/11/09 12:24:56;;;;;;;7.78;1.92;;;15.30;99.90;;;;;;5091042;28;20214;-50
2022/11/09 12:27:53;;;;;;;4.20;1.30;;;15.30;99.90;;;;;;5091288;28;20247;-51
2022/11/09 12:30:22;;;;;;;7.50;1.50;;;15.20;99.90;;;;;;5090857;28;20165;-51
2022/11/09 12:32:57;;;;;;;5.25;1.30;;;15.20;99.90;;;;;;5092088;28;20177;-51
2022/11/09 12:35:32;;;;;;;9.57;1.98;;;15.20;99.90;;;;;;5091797;28;20248;-51
2022/11/09 12:38:12;;;;;;;2.85;1.05;;;15.20;99.90;;;;;;5091889;28;20165;-50
2022/11/09 12:41:04;;;;;;;4.97;1.30;;;15.00;99.90;;;;;;5091684;28;20219;-50
2022/11/09 12:43:41;;;;;;;7.90;1.67;;;15.00;99.90;;;;;;5092366;28;20212;-51
2022/11/09 12:46:10;;;;;;;9.88;1.48;;;15.00;99.90;;;;;;5091661;28;20222;-51
2022/11/09 12:48:35;;;;;;;3.53;1.27;;;14.90;99.90;;;;;;5091701;28;20517;-51
2022/11/09 12:51:04;;;;;;;5.53;1.83;;;14.90;99.90;;;;;;5091687;28;20168;-50
2022/11/09 12:53:34;;;;;;;3.13;1.15;;;14.90;99.90;;;;;;5092318;28;20199;-51
2022/11/09 12:56:20;;;;;;;7.70;1.60;;;14.90;99.90;;;;;;5091083;28;20159;-52
2022/11/09 12:58:46;;;;;;;3.65;1.60;;;14.90;99.90;;;;;;5089817;28;20266;-52